Time;durP1;ratioP1;P1;durP2;ratioP2;P2;SDS_P1;SDS_P2;PMS_P1;PMS_P2;Temp;Humidity;BMP_temperature;BMP_pressure;BME280_temperature;BME280_humidity;BME280_pressure;Samples;Min_cycle;Max_cycle;Signal;HPM_P1;HPM_P2
2021/03/13 00:02:20;;;;;;;47.50;27.27;;;;;;;0.81;84.05;98944.64;128280;1110;23498;-62
2021/03/13 00:04:48;;;;;;;43.73;24.53;;;;;;;0.84;85.19;98943.40;128208;1110;22842;-62
2021/03/13 00:07:15;;;;;;;42.20;24.87;;;;;;;0.84;83.94;98938.86;128315;1111;22878;-62
2021/03/13 00:09:45;;;;;;;42.07;22.80;;;;;;;0.86;84.01;98941.33;128195;1110;22830;-62
2021/03/13 00:12:12;;;;;;;42.60;24.70;;;;;;;0.86;84.98;98941.33;128350;1110;23158;-62
2021/03/13 00:14:40;;;;;;;48.27;25.67;;;;;;;0.88;83.92;98945.43;128170;1110;22823;-62
2021/03/13 00:17:07;;;;;;;53.00;28.60;;;;;;;0.89;84.68;98948.94;128278;1110;22874;-62
2021/03/13 00:19:35;;;;;;;65.23;31.77;;;;;;;0.89;84.94;98947.08;128209;1111;22840;-62
2021/03/13 00:22:03;;;;;;;79.43;36.73;;;;;;;0.90;84.22;98945.22;128378;1110;22987;-62
2021/03/13 00:24:30;;;;;;;88.60;36.13;;;;;;;0.90;84.05;98937.17;128193;1110;22961;-62
2021/03/13 00:26:58;;;;;;;67.50;35.70;;;;;;;0.91;83.60;98934.28;128357;1110;23781;-63
2021/03/13 00:29:25;;;;;;;62.73;31.23;;;;;;;0.94;84.70;98936.55;128187;1111;22837;-63
2021/03/13 00:31:54;;;;;;;63.77;31.47;;;;;;;0.95;84.69;98943.57;128292;1110;22837;-63
2021/03/13 00:34:22;;;;;;;60.83;30.23;;;;;;;0.94;84.60;98941.92;128225;1111;23491;-63
2021/03/13 00:36:49;;;;;;;54.63;29.33;;;;;;;0.96;83.65;98941.71;128344;1110;22955;-63
2021/03/13 00:39:17;;;;;;;53.53;30.77;;;;;;;0.97;83.81;98940.68;128267;1110;23421;-64
2021/03/13 00:41:45;;;;;;;56.00;29.30;;;;;;;0.97;84.92;98951.41;128234;1111;22922;-63
2021/03/13 00:44:12;;;;;;;54.93;29.70;;;;;;;0.98;84.98;98942.33;128992;1105;22825;-64
2021/03/13 00:46:43;;;;;;;50.87;27.23;;;;;;;1.00;84.69;98942.95;128273;1106;23036;-64
2021/03/13 00:49:10;;;;;;;47.17;27.53;;;;;;;1.00;84.68;98938.41;128366;1106;22885;-64
2021/03/13 00:51:38;;;;;;;43.13;25.83;;;;;;;1.01;84.22;98944.59;128411;1105;23007;-64
2021/03/13 00:54:05;;;;;;;45.73;26.30;;;;;;;1.01;84.56;98949.96;129167;1105;22837;-64
2021/03/13 00:56:33;;;;;;;43.03;27.10;;;;;;;1.01;84.91;98945.39;128693;1105;22856;-62
2021/03/13 00:59:00;;;;;;;38.87;25.43;;;;;;;1.02;83.67;98944.36;128441;1106;23511;-62
2021/03/13 01:01:28;;;;;;;40.17;26.60;;;;;;;1.04;84.76;98953.02;128843;1105;22901;-62
2021/03/13 01:03:55;;;;;;;36.43;24.03;;;;;;;1.06;83.82;98953.64;128485;1105;22882;-63
2021/03/13 01:06:23;;;;;;;37.63;24.60;;;;;;;1.08;84.85;98948.07;128232;1106;22853;-63
2021/03/13 01:08:51;;;;;;;38.27;23.57;;;;;;;1.10;84.24;98953.23;128839;1104;22890;-63
2021/03/13 01:11:22;;;;;;;36.03;22.90;;;;;;;1.12;84.86;98943.11;128270;1107;22841;-62
2021/03/13 01:13:53;;;;;;;40.43;23.10;;;;;;;1.14;83.63;98949.09;128344;1107;22895;-63
2021/03/13 01:16:22;;;;;;;38.77;23.73;;;;;;;1.15;83.79;98956.94;128778;1106;22871;-63
2021/03/13 01:18:49;;;;;;;36.87;23.27;;;;;;;1.17;84.95;98964.75;128294;1108;22876;-63
2021/03/13 01:21:22;;;;;;;34.60;21.27;;;;;;;1.17;85.09;98965.57;128890;1105;22886;-63
2021/03/13 01:23:49;;;;;;;35.80;21.13;;;;;;;1.19;84.78;98986.83;129144;1105;23744;-65
2021/03/13 01:26:18;;;;;;;39.03;23.43;;;;;;;1.21;84.56;98982.08;128192;1107;24009;-65
2021/03/13 01:28:47;;;;;;;42.90;24.43;;;;;;;1.23;83.88;98985.38;128345;1108;24028;-65
2021/03/13 01:31:26;;;;;;;40.10;23.90;;;;;;;1.24;83.86;98987.03;128318;1107;24089;-65
2021/03/13 01:33:53;;;;;;;38.00;21.20;;;;;;;1.26;84.59;98998.38;128212;1106;23457;-65
2021/03/13 01:36:21;;;;;;;35.05;21.45;;;;;;;1.27;85.07;98997.34;129125;1104;22859;-58
2021/03/13 01:38:50;;;;;;;37.93;22.20;;;;;;;1.28;83.79;98993.63;128229;1108;25420;-58
2021/03/13 01:41:18;;;;;;;37.13;22.70;;;;;;;1.29;83.83;98990.73;128266;1106;22886;-58
2021/03/13 01:43:46;;;;;;;39.77;25.10;;;;;;;1.31;84.14;98996.70;128367;1105;22887;-58
2021/03/13 01:46:14;;;;;;;31.97;20.47;;;;;;;1.34;83.87;99000.82;128342;1107;24110;-57
2021/03/13 01:48:52;;;;;;;31.87;20.87;;;;;;;1.34;84.08;99009.70;128310;1105;23708;-57
2021/03/13 01:51:21;;;;;;;34.23;21.07;;;;;;;1.35;83.81;99014.03;128831;1105;23114;-57
2021/03/13 01:53:50;;;;;;;36.83;22.53;;;;;;;1.37;83.75;99011.14;128318;1104;25170;-57
2021/03/13 01:56:18;;;;;;;36.67;21.60;;;;;;;1.37;83.96;99019.19;128904;1105;22925;-56
2021/03/13 01:58:46;;;;;;;34.90;22.43;;;;;;;1.37;84.44;99016.51;128175;1107;22830;-56
2021/03/13 02:01:30;;;;;;;31.53;20.30;;;;;;;1.39;83.74;99014.44;129069;1105;22967;-57
2021/03/13 02:03:59;;;;;;;29.67;20.67;;;;;;;1.39;84.50;99022.49;129107;1105;24017;-57
2021/03/13 02:06:27;;;;;;;33.15;20.60;;;;;;;1.40;84.59;99026.83;129202;1105;22898;-57
2021/03/13 02:09:08;;;;;;;31.57;20.77;;;;;;;1.41;84.67;99031.16;129136;1105;22826;-57
2021/03/13 02:11:45;;;;;;;33.43;21.87;;;;;;;1.41;84.30;99029.30;129226;1105;22888;-57
2021/03/13 02:14:16;;;;;;;33.15;20.17;;;;;;;1.41;83.52;99033.84;129056;1105;22982;-57
2021/03/13 02:17:21;;;;;;;31.15;20.90;;;;;;;1.40;83.35;99038.39;129247;1105;23569;-57
2021/03/13 02:20:17;;;;;;;32.85;20.35;;;;;;;1.41;83.93;99047.27;129093;1105;22981;-57
2021/03/13 02:22:47;;;;;;;34.37;20.63;;;;;;;1.42;83.60;99046.23;129270;1105;23370;-57
2021/03/13 02:26:05;;;;;;;31.13;20.07;;;;;;;1.43;83.91;99045.20;128969;1105;23096;-57
2021/03/13 02:28:47;;;;;;;32.30;20.10;;;;;;;1.44;83.78;99048.71;129066;1105;23220;-57
2021/03/13 02:31:15;;;;;;;31.50;20.03;;;;;;;1.43;83.98;99055.94;129127;1105;22991;-57
2021/03/13 02:33:43;;;;;;;32.77;19.93;;;;;;;1.43;84.55;99061.30;128992;1105;22978;-57
2021/03/13 02:36:32;;;;;;;32.80;19.97;;;;;;;1.44;83.85;99049.53;129223;1105;22961;-57
2021/03/13 02:39:07;;;;;;;31.73;20.10;;;;;;;1.45;83.62;99059.20;128623;1106;23545;-57
2021/03/13 02:41:43;;;;;;;41.07;24.20;;;;;;;1.46;84.31;99054.66;129213;1105;23579;-57
2021/03/13 02:44:13;;;;;;;33.75;21.00;;;;;;;1.48;84.27;99053.42;129129;1106;22881;-57
2021/03/13 02:46:47;;;;;;;33.80;22.07;;;;;;;1.49;84.15;99049.70;129087;1105;22997;-57
2021/03/13 02:49:17;;;;;;;35.90;22.40;;;;;;;1.51;84.12;99046.81;129134;1105;23007;-57
2021/03/13 02:51:45;;;;;;;43.40;26.03;;;;;;;1.51;84.43;99049.50;128848;1105;22835;-58
2021/03/13 02:54:14;;;;;;;37.80;23.30;;;;;;;1.52;83.95;99051.98;129022;1105;22869;-57
2021/03/13 02:56:42;;;;;;;33.40;20.55;;;;;;;1.52;84.44;99043.92;129056;1105;23018;-57
2021/03/13 02:59:11;;;;;;;30.65;20.55;;;;;;;1.53;84.65;99053.63;128784;1105;22865;-57
2021/03/13 03:01:38;;;;;;;32.07;20.40;;;;;;;1.55;84.85;99053.42;129051;1105;22889;-57
2021/03/13 03:04:06;;;;;;;34.10;21.05;;;;;;;1.56;84.51;99053.21;129243;1105;22854;-57
2021/03/13 03:06:38;;;;;;;32.80;20.47;;;;;;;1.58;84.60;99048.46;126100;1106;23072;-55
2021/03/13 03:09:06;;;;;;;32.40;19.35;;;;;;;1.60;84.46;99046.36;129262;1105;22915;-57
2021/03/13 03:11:42;;;;;;;31.60;19.05;;;;;;;1.61;84.75;99041.81;128409;1105;22960;-57
2021/03/13 03:14:11;;;;;;;31.75;19.60;;;;;;;1.62;84.56;99038.09;128695;1105;23603;-59
2021/03/13 03:16:39;;;;;;;39.30;21.33;;;;;;;1.64;83.82;99042.22;129065;1105;22894;-59
2021/03/13 03:19:06;;;;;;;30.23;20.10;;;;;;;1.64;83.77;99044.91;128568;1105;23008;-59
2021/03/13 03:21:36;;;;;;;34.90;21.95;;;;;;;1.65;84.20;99043.05;129125;1105;22820;-59
2021/03/13 03:24:04;;;;;;;33.80;21.90;;;;;;;1.66;84.47;99055.44;129257;1105;22901;-59
2021/03/13 03:26:33;;;;;;;30.15;20.30;;;;;;;1.65;84.86;99049.25;129077;1105;22920;-59
2021/03/13 03:29:00;;;;;;;30.25;18.80;;;;;;;1.67;84.37;99051.72;129284;1105;22865;-59
2021/03/13 03:31:28;;;;;;;30.00;20.20;;;;;;;1.67;84.24;99057.09;129100;1105;23671;-59
2021/03/13 03:33:56;;;;;;;30.95;19.25;;;;;;;1.67;84.33;99049.86;129195;1105;22889;-59
2021/03/13 03:36:24;;;;;;;29.03;18.33;;;;;;;1.67;84.41;99052.55;129079;1105;23010;-60
2021/03/13 03:38:56;;;;;;;31.70;19.90;;;;;;;1.67;83.51;99067.83;129251;1105;22898;-56
2021/03/13 03:41:32;;;;;;;28.57;19.13;;;;;;;1.66;84.05;99072.38;129177;1104;22949;-56
2021/03/13 03:44:14;;;;;;;31.30;19.80;;;;;;;1.65;83.91;99076.09;129211;1105;22815;-56
2021/03/13 03:46:55;;;;;;;26.40;17.90;;;;;;;1.65;83.90;99083.33;128457;1105;22841;-56
2021/03/13 03:49:23;;;;;;;29.25;17.90;;;;;;;1.64;84.27;99084.36;128481;1105;22842;-56
2021/03/13 03:52:00;;;;;;;31.37;19.27;;;;;;;1.61;84.42;99082.09;128481;1105;22960;-56
2021/03/13 03:54:27;;;;;;;32.80;19.80;;;;;;;1.60;84.13;99085.81;129267;1106;22828;-57
2021/03/13 03:56:54;;;;;;;31.95;19.25;;;;;;;1.60;84.31;99088.49;129211;1105;23018;-56
2021/03/13 03:59:22;;;;;;;34.03;19.53;;;;;;;1.59;84.09;99084.98;129137;1104;22943;-56
2021/03/13 04:01:51;;;;;;;37.77;21.43;;;;;;;1.59;84.71;99087.67;129238;1105;22904;-56
2021/03/13 04:04:20;;;;;;;41.90;22.25;;;;;;;1.59;84.52;99076.92;129143;1105;22904;-56
2021/03/13 04:06:48;;;;;;;27.65;18.85;;;;;;;1.56;84.09;99081.92;129270;1105;22975;-56
2021/03/13 04:09:18;;;;;;;29.65;19.45;;;;;;;1.56;84.53;99088.11;128860;1105;22874;-56
2021/03/13 04:11:46;;;;;;;32.37;19.57;;;;;;;1.58;84.35;99095.96;128550;1105;22974;-54
2021/03/13 04:14:13;;;;;;;30.80;18.80;;;;;;;1.57;84.55;99088.94;129092;1105;22841;-55
2021/03/13 04:16:41;;;;;;;31.95;20.35;;;;;;;1.57;84.33;99089.77;129317;1104;22962;-54
2021/03/13 04:19:08;;;;;;;27.50;18.13;;;;;;;1.55;85.01;99086.46;129177;1105;22836;-55
2021/03/13 04:21:44;;;;;;;30.85;17.65;;;;;;;1.54;85.63;99095.55;128551;1105;22918;-55
2021/03/13 04:24:12;;;;;;;28.95;18.30;;;;;;;1.53;85.74;99096.58;129061;1105;22881;-55
2021/03/13 04:26:40;;;;;;;27.25;16.85;;;;;;;1.53;85.17;99096.58;129261;1106;22857;-55
2021/03/13 04:29:07;;;;;;;27.67;17.03;;;;;;;1.52;84.80;99089.56;129079;1105;22861;-55
2021/03/13 04:31:35;;;;;;;26.50;16.63;;;;;;;1.50;85.13;99093.48;129208;1105;22889;-55
2021/03/13 04:34:03;;;;;;;28.75;18.20;;;;;;;1.50;85.64;99096.17;129082;1106;23773;-55
2021/03/13 04:36:37;;;;;;;30.30;18.50;;;;;;;1.51;85.79;99098.64;129300;1105;22848;-54
2021/03/13 04:39:05;;;;;;;25.07;15.47;;;;;;;1.51;85.02;99104.02;129155;1105;23041;-55
2021/03/13 04:41:34;;;;;;;28.27;16.30;;;;;;;1.51;85.69;99109.39;128617;1105;22943;-57
2021/03/13 04:44:01;;;;;;;25.47;16.90;;;;;;;1.50;85.14;99105.05;129103;1105;22844;-57
2021/03/13 04:46:33;;;;;;;25.40;15.45;;;;;;;1.52;84.92;99120.95;129229;1105;22885;-57
2021/03/13 04:49:05;;;;;;;26.20;16.90;;;;;;;1.52;85.67;99107.53;129177;1104;22939;-57
2021/03/13 04:51:32;;;;;;;25.15;15.90;;;;;;;1.51;84.57;99111.24;129142;1105;22925;-57
2021/03/13 04:54:00;;;;;;;27.10;16.65;;;;;;;1.43;85.78;99101.57;129244;1106;22855;-57
2021/03/13 04:56:27;;;;;;;26.50;17.37;;;;;;;1.50;85.92;99121.16;129109;1105;22953;-57
2021/03/13 04:58:55;;;;;;;29.53;19.00;;;;;;;1.50;84.77;99126.52;129269;1106;22815;-56
2021/03/13 05:01:22;;;;;;;27.73;17.77;;;;;;;1.51;85.03;99122.81;129132;1105;22940;-56
2021/03/13 05:03:50;;;;;;;30.97;17.63;;;;;;;1.52;85.01;99135.20;129206;1105;22938;-55
2021/03/13 05:06:18;;;;;;;32.80;19.20;;;;;;;1.54;86.15;99132.31;129173;1105;22977;-55
2021/03/13 05:08:47;;;;;;;31.30;18.93;;;;;;;1.56;85.22;99130.24;129260;1105;22837;-54
2021/03/13 05:11:14;;;;;;;30.00;18.80;;;;;;;1.56;86.07;99133.75;129135;1105;22948;-55
2021/03/13 05:13:42;;;;;;;28.70;18.10;;;;;;;1.56;85.15;99138.30;129270;1105;23052;-55
2021/03/13 05:16:10;;;;;;;36.80;20.05;;;;;;;1.56;85.67;99140.98;127292;1105;23046;-55
2021/03/13 05:18:38;;;;;;;37.55;22.10;;;;;;;1.58;85.69;99144.28;129244;1105;22865;-55
2021/03/13 05:21:06;;;;;;;30.70;18.95;;;;;;;1.59;85.85;99153.96;129159;1105;22891;-55
2021/03/13 05:23:33;;;;;;;38.05;21.05;;;;;;;1.60;86.36;99150.25;129257;1106;22878;-55
2021/03/13 05:26:01;;;;;;;36.37;19.40;;;;;;;1.61;85.26;99150.04;129163;1104;23591;-55
2021/03/13 05:28:28;;;;;;;34.05;20.10;;;;;;;1.63;85.84;99156.03;129252;1105;22883;-55
2021/03/13 05:30:56;;;;;;;33.13;21.40;;;;;;;1.64;86.26;99152.31;129141;1105;22819;-55
2021/03/13 05:33:23;;;;;;;34.50;19.67;;;;;;;1.65;86.09;99151.28;129247;1105;22939;-55
2021/03/13 05:35:51;;;;;;;32.70;19.55;;;;;;;1.67;85.65;99157.27;129163;1105;23650;-55
2021/03/13 05:38:19;;;;;;;35.17;20.37;;;;;;;1.68;85.42;99158.09;129059;1105;23705;-55
2021/03/13 05:40:46;;;;;;;32.00;19.00;;;;;;;1.70;85.58;99164.09;129187;1105;22843;-55
2021/03/13 05:43:13;;;;;;;29.35;17.70;;;;;;;1.73;86.00;99161.78;129106;1105;24586;-56
2021/03/13 05:45:41;;;;;;;31.20;19.10;;;;;;;1.77;85.53;99170.25;128269;1105;23023;-55
2021/03/13 05:48:09;;;;;;;28.85;18.15;;;;;;;1.80;86.45;99174.39;129048;1105;22871;-56
2021/03/13 05:50:37;;;;;;;30.00;19.10;;;;;;;1.83;85.97;99180.17;129295;1105;22876;-56
2021/03/13 05:53:05;;;;;;;29.40;19.10;;;;;;;1.86;86.06;99187.81;129186;1104;22886;-56
2021/03/13 05:55:32;;;;;;;30.60;18.75;;;;;;;1.90;86.36;99190.88;129211;1105;22981;-56
2021/03/13 05:58:01;;;;;;;29.85;18.50;;;;;;;1.92;86.09;99178.90;129107;1105;22951;-57
2021/03/13 06:00:29;;;;;;;31.60;17.90;;;;;;;1.96;86.00;99185.52;129125;1105;22974;-56
2021/03/13 06:02:57;;;;;;;29.50;18.97;;;;;;;1.99;85.68;99197.70;129144;1105;24046;-57
2021/03/13 06:05:25;;;;;;;31.95;18.40;;;;;;;2.01;85.63;99198.32;129197;1105;22851;-57
2021/03/13 06:07:56;;;;;;;28.63;18.50;;;;;;;2.04;85.30;99216.69;129141;1104;24282;-56
2021/03/13 06:10:23;;;;;;;29.43;18.03;;;;;;;2.06;84.88;99222.67;129266;1105;23001;-56
2021/03/13 06:12:50;;;;;;;27.03;18.93;;;;;;;2.07;85.49;99217.09;129122;1104;22905;-57
2021/03/13 06:15:20;;;;;;;29.25;18.05;;;;;;;2.09;85.70;99217.72;129199;1105;22934;-56
2021/03/13 06:17:54;;;;;;;29.25;18.30;;;;;;;2.14;85.85;99222.47;129107;1105;22901;-57
2021/03/13 06:20:42;;;;;;;28.60;17.85;;;;;;;2.19;86.02;99229.88;129244;1104;22902;-57
2021/03/13 06:23:10;;;;;;;24.30;16.70;;;;;;;2.25;85.53;99235.25;129082;1104;22828;-56
2021/03/13 06:25:37;;;;;;;26.53;18.00;;;;;;;2.30;85.39;99232.77;128394;1105;23103;-55
2021/03/13 06:28:29;;;;;;;25.70;16.60;;;;;;;2.36;84.93;99237.27;129131;1105;22823;-57
2021/03/13 06:31:03;;;;;;;27.45;16.40;;;;;;;2.42;85.00;99239.13;129234;1105;23659;-57
2021/03/13 06:33:32;;;;;;;25.97;16.73;;;;;;;2.49;85.33;99239.91;129163;1105;24191;-57
2021/03/13 06:36:01;;;;;;;25.80;16.95;;;;;;;2.57;85.25;99233.48;129290;1105;22953;-57
2021/03/13 06:38:35;;;;;;;32.90;17.77;;;;;;;2.65;85.49;99230.53;129121;1105;22849;-57
2021/03/13 06:41:23;;;;;;;25.45;17.45;;;;;;;2.74;85.10;99236.52;129236;1105;23123;-57
2021/03/13 06:43:52;;;;;;;29.30;17.23;;;;;;;2.81;84.41;99238.12;129169;1105;22883;-56
2021/03/13 06:46:21;;;;;;;25.90;16.30;;;;;;;2.85;84.58;99241.21;129246;1104;23003;-56
2021/03/13 06:48:53;;;;;;;24.15;16.10;;;;;;;2.89;84.30;99239.72;129075;1104;22887;-57
2021/03/13 06:51:26;;;;;;;28.00;16.03;;;;;;;2.96;84.19;99237.83;129257;1105;22930;-57
2021/03/13 06:54:01;;;;;;;23.43;16.37;;;;;;;3.02;84.09;99228.08;129270;1104;22783;-57
2021/03/13 06:56:30;;;;;;;26.13;16.40;;;;;;;3.09;84.39;99226.98;129267;1105;22976;-57
2021/03/13 06:58:58;;;;;;;25.07;16.50;;;;;;;3.18;84.24;99230.22;129266;1105;23026;-56
2021/03/13 07:01:30;;;;;;;23.65;16.40;;;;;;;3.27;83.43;99228.94;129137;1105;22941;-56
2021/03/13 07:03:58;;;;;;;26.60;15.65;;;;;;;3.35;83.23;99233.22;129234;1106;22856;-57
2021/03/13 07:06:26;;;;;;;50.20;28.70;;;;;;;3.41;83.07;99233.19;129142;1105;22984;-56
2021/03/13 07:08:54;;;;;;;33.55;21.50;;;;;;;3.49;83.18;99234.77;129263;1105;23536;-57
2021/03/13 07:11:24;;;;;;;26.87;17.37;;;;;;;3.47;82.55;99223.39;129170;1105;23534;-56
2021/03/13 07:13:53;;;;;;;26.25;19.10;;;;;;;3.62;82.30;99234.66;129290;1105;23731;-56
2021/03/13 07:16:27;;;;;;;28.70;18.70;;;;;;;3.67;81.87;99231.31;129146;1105;23716;-56
2021/03/13 07:19:00;;;;;;;28.90;17.35;;;;;;;3.71;81.80;99233.36;129249;1105;22847;-56
2021/03/13 07:21:27;;;;;;;25.35;17.00;;;;;;;3.75;81.65;99231.84;129108;1105;22853;-57
2021/03/13 07:24:02;;;;;;;27.13;16.10;;;;;;;3.71;81.73;99217.19;129279;1105;23791;-56
2021/03/13 07:26:47;;;;;;;24.50;17.10;;;;;;;3.85;80.73;99234.06;126848;1105;23309;-56
2021/03/13 07:29:15;;;;;;;29.55;19.45;;;;;;;3.89;80.99;99235.28;129277;1105;22929;-56
2021/03/13 07:31:45;;;;;;;30.20;19.10;;;;;;;3.95;80.58;99238.94;129136;1105;22885;-57
2021/03/13 07:34:19;;;;;;;23.93;16.07;;;;;;;3.99;80.07;99226.67;129175;1105;22870;-57
2021/03/13 07:36:54;;;;;;;23.85;16.20;;;;;;;4.02;80.33;99242.41;129176;1105;22896;-56
2021/03/13 07:39:29;;;;;;;35.97;21.93;;;;;;;4.06;80.35;99244.41;129291;1105;22925;-56
2021/03/13 07:42:01;;;;;;;25.70;16.55;;;;;;;4.11;80.77;99238.36;129147;1105;22835;-57
2021/03/13 07:44:29;;;;;;;29.20;19.15;;;;;;;4.16;80.23;99238.52;129250;1105;22890;-57
2021/03/13 07:46:57;;;;;;;25.40;17.60;;;;;;;4.22;79.62;99241.14;129128;1105;22898;-56
2021/03/13 07:49:25;;;;;;;26.65;16.70;;;;;;;4.26;79.73;99228.04;129274;1105;22894;-57
2021/03/13 07:51:53;;;;;;;27.95;17.75;;;;;;;4.30;79.47;99239.20;129175;1105;22956;-57
2021/03/13 07:54:21;;;;;;;25.95;16.95;;;;;;;4.32;78.76;99235.24;129189;1105;22820;-57
2021/03/13 07:56:48;;;;;;;25.30;17.85;;;;;;;4.37;79.13;99238.07;129080;1105;23826;-57
2021/03/13 07:59:48;;;;;;;24.00;16.80;;;;;;;4.40;78.55;99248.41;128804;1105;23040;-57
2021/03/13 08:02:31;;;;;;;27.13;16.57;;;;;;;4.44;78.76;99246.92;129178;1105;23498;-57
2021/03/13 08:05:03;;;;;;;28.65;17.45;;;;;;;4.48;79.12;99241.88;126092;1105;23103;-55
2021/03/13 08:07:50;;;;;;;24.93;16.73;;;;;;;4.50;78.37;99237.91;129142;1105;22850;-57
2021/03/13 08:10:43;;;;;;;27.50;16.97;;;;;;;4.54;78.09;99233.72;129282;1105;22834;-56
2021/03/13 08:13:13;;;;;;;23.13;16.37;;;;;;;4.57;78.27;99241.38;129181;1105;22907;-57
2021/03/13 08:15:42;;;;;;;23.80;16.40;;;;;;;4.60;78.67;99238.23;129184;1105;23470;-56
2021/03/13 08:18:13;;;;;;;24.43;16.70;;;;;;;4.62;78.28;99241.50;129118;1105;23721;-56
2021/03/13 08:20:40;;;;;;;24.37;17.40;;;;;;;4.65;78.08;99239.41;129257;1105;22905;-56
2021/03/13 08:23:11;;;;;;;28.10;18.43;;;;;;;4.68;78.22;99245.17;129202;1105;22859;-55
2021/03/13 08:25:51;;;;;;;28.67;19.77;;;;;;;4.71;78.35;99249.30;129227;1105;24068;-56
2021/03/13 08:28:50;;;;;;;29.57;19.97;;;;;;;4.74;77.79;99244.28;129124;1105;22838;-56
2021/03/13 08:31:28;;;;;;;29.43;19.17;;;;;;;4.75;77.52;99250.51;129267;1105;22829;-56
2021/03/13 08:34:04;;;;;;;33.05;20.75;;;;;;;4.76;77.66;99242.16;129120;1105;22887;-56
2021/03/13 08:36:33;;;;;;;30.17;20.30;;;;;;;4.78;77.29;99236.53;129280;1105;23009;-55
2021/03/13 08:39:14;;;;;;;28.45;19.65;;;;;;;4.80;76.84;99242.53;129169;1105;24097;-55
2021/03/13 08:41:44;;;;;;;29.05;20.05;;;;;;;4.83;77.19;99242.91;129298;1105;22854;-55
2021/03/13 08:44:20;;;;;;;28.20;19.95;;;;;;;4.86;77.21;99247.86;129209;1105;22961;-55
2021/03/13 08:47:08;;;;;;;31.12;19.55;;;;;;;4.88;76.55;99244.94;129336;1105;22842;-56
2021/03/13 08:49:41;;;;;;;33.70;20.77;;;;;;;4.90;77.21;99249.06;129165;1105;22818;-55
2021/03/13 08:52:08;;;;;;;30.80;20.50;;;;;;;4.93;76.65;99250.45;129222;1105;22883;-55
2021/03/13 08:54:47;;;;;;;30.95;20.85;;;;;;;4.94;77.03;99250.23;129185;1105;22891;-55
2021/03/13 08:57:24;;;;;;;32.85;22.15;;;;;;;4.96;76.77;99255.41;129286;1105;23805;-55
2021/03/13 08:59:52;;;;;;;36.75;21.17;;;;;;;4.98;77.18;99250.61;129151;1105;22851;-55
2021/03/13 09:02:21;;;;;;;33.45;21.70;;;;;;;5.01;77.00;99250.16;129279;1105;22969;-55
2021/03/13 09:04:55;;;;;;;33.23;22.43;;;;;;;5.05;77.04;99256.72;129130;1105;22835;-56
2021/03/13 09:07:23;;;;;;;35.30;23.77;;;;;;;5.06;76.21;99261.07;125362;1105;27719;-56
2021/03/13 09:09:55;;;;;;;37.60;24.45;;;;;;;5.02;75.95;99257.20;124902;1105;23048;-57
2021/03/13 09:12:29;;;;;;;32.67;22.97;;;;;;;4.96;75.97;99250.83;124913;1104;23483;-57
2021/03/13 09:15:01;;;;;;;36.17;23.17;;;;;;;4.94;76.26;99246.70;124858;1105;23086;-58
2021/03/13 09:17:30;;;;;;;37.70;23.73;;;;;;;4.92;76.37;99236.13;129277;1105;22873;-57
2021/03/13 09:20:02;;;;;;;38.63;24.10;;;;;;;4.92;76.44;99233.43;129146;1105;23710;-57
2021/03/13 09:22:30;;;;;;;37.47;24.53;;;;;;;4.91;76.02;99239.87;129330;1105;22830;-57
2021/03/13 09:25:03;;;;;;;40.70;23.90;;;;;;;4.91;75.30;99245.28;129160;1104;23904;-57
2021/03/13 09:27:32;;;;;;;38.25;24.05;;;;;;;4.93;76.19;99242.36;129299;1105;22835;-57
2021/03/13 09:30:11;;;;;;;39.70;24.13;;;;;;;4.95;76.33;99251.88;129147;1105;22811;-57
2021/03/13 09:32:46;;;;;;;37.83;24.13;;;;;;;4.97;75.75;99248.95;129314;1105;22887;-57
2021/03/13 09:35:14;;;;;;;35.40;22.15;;;;;;;5.02;75.93;99261.78;129213;1105;22970;-57
2021/03/13 09:37:42;;;;;;;33.47;23.00;;;;;;;5.07;76.02;99256.50;129246;1105;23636;-57
2021/03/13 09:40:13;;;;;;;32.43;23.53;;;;;;;5.11;75.84;99260.39;129295;1106;22888;-57
2021/03/13 09:42:42;;;;;;;33.30;22.77;;;;;;;5.15;75.60;99262.42;129154;1105;24268;-57
2021/03/13 09:45:14;;;;;;;33.30;24.70;;;;;;;5.16;75.47;99257.84;129272;1105;22942;-57
2021/03/13 09:47:54;;;;;;;35.75;24.50;;;;;;;5.12;74.72;99257.47;129183;1105;22882;-57
2021/03/13 09:50:27;;;;;;;34.60;22.35;;;;;;;5.09;75.65;99257.09;129354;1105;22832;-56
2021/03/13 09:52:54;;;;;;;34.70;23.30;;;;;;;5.06;75.57;99258.38;129134;1105;23387;-57
2021/03/13 09:55:25;;;;;;;35.80;24.40;;;;;;;5.04;75.17;99256.98;129278;1105;22936;-57
2021/03/13 09:57:54;;;;;;;33.60;22.65;;;;;;;5.01;75.24;99252.85;129201;1106;23585;-56
2021/03/13 10:00:26;;;;;;;33.30;22.15;;;;;;;4.98;75.42;99253.30;129268;1105;23138;-55
2021/03/13 10:02:55;;;;;;;35.50;23.40;;;;;;;4.94;75.21;99257.50;129157;1105;22832;-55
2021/03/13 10:05:27;;;;;;;40.47;22.83;;;;;;;4.92;74.88;99256.91;129093;1105;22884;-55
2021/03/13 10:07:54;;;;;;;36.55;21.70;;;;;;;4.88;75.18;99261.13;129199;1105;22884;-56
2021/03/13 10:10:24;;;;;;;35.20;21.90;;;;;;;4.78;74.84;99236.53;129322;1105;23834;-55
2021/03/13 10:12:54;;;;;;;32.95;20.65;;;;;;;4.85;75.50;99246.21;129136;1105;22824;-55
2021/03/13 10:15:25;;;;;;;30.93;21.30;;;;;;;4.88;75.48;99250.33;129290;1105;23595;-55
2021/03/13 10:18:10;;;;;;;32.37;21.17;;;;;;;4.88;75.48;99248.45;129182;1105;23572;-55
2021/03/13 10:20:39;;;;;;;37.55;24.52;;;;;;;4.89;75.90;99250.11;129291;1105;23017;-55
2021/03/13 10:23:20;;;;;;;30.95;20.55;;;;;;;4.89;75.25;99251.98;129113;1105;22852;-55
2021/03/13 10:26:12;;;;;;;32.53;21.23;;;;;;;4.87;75.64;99252.20;129278;1105;22888;-55
2021/03/13 10:28:47;;;;;;;42.47;25.60;;;;;;;4.86;74.89;99247.03;129081;1105;23672;-55
2021/03/13 10:31:22;;;;;;;36.33;24.27;;;;;;;4.85;75.71;99248.91;129297;1105;22835;-54
2021/03/13 10:33:50;;;;;;;37.15;22.85;;;;;;;4.87;75.34;99248.69;129159;1105;22876;-54
2021/03/13 10:36:19;;;;;;;38.80;24.30;;;;;;;4.88;75.19;99253.03;129262;1105;22877;-54
2021/03/13 10:38:51;;;;;;;36.20;24.30;;;;;;;4.90;75.69;99249.06;129197;1105;22896;-54
2021/03/13 10:41:23;;;;;;;39.70;24.77;;;;;;;4.92;75.43;99246.93;129293;1104;23005;-54
2021/03/13 10:43:56;;;;;;;36.50;23.65;;;;;;;4.94;75.06;99242.12;129137;1104;23672;-55
2021/03/13 10:46:25;;;;;;;36.43;24.27;;;;;;;4.93;75.39;99240.48;129301;1105;22844;-55
2021/03/13 10:48:53;;;;;;;35.17;22.30;;;;;;;4.93;74.78;99243.18;129171;1105;23418;-55
2021/03/13 10:51:24;;;;;;;31.83;20.93;;;;;;;4.92;75.04;99236.13;129259;1105;22827;-55
2021/03/13 10:53:52;;;;;;;35.83;21.87;;;;;;;4.93;75.36;99237.78;129144;1105;22838;-55
2021/03/13 10:56:19;;;;;;;37.30;21.93;;;;;;;4.98;75.00;99239.80;129305;1105;22875;-55
2021/03/13 10:58:56;;;;;;;34.80;22.25;;;;;;;5.03;75.11;99236.43;129136;1105;22842;-55
2021/03/13 11:01:25;;;;;;;36.55;21.73;;;;;;;5.06;75.13;99235.95;129290;1105;22851;-55
2021/03/13 11:03:55;;;;;;;39.15;25.75;;;;;;;5.08;74.31;99231.97;129173;1105;22864;-56
2021/03/13 11:06:33;;;;;;;39.40;24.03;;;;;;;5.14;74.69;99235.64;129275;1105;22814;-56
2021/03/13 11:09:05;;;;;;;34.35;22.20;;;;;;;5.18;74.80;99239.53;129079;1105;23991;-55
2021/03/13 11:11:33;;;;;;;34.27;22.80;;;;;;;5.23;74.92;99231.55;129271;1105;22862;-56
2021/03/13 11:14:02;;;;;;;36.10;24.77;;;;;;;5.29;74.76;99219.84;129185;1105;22841;-55
2021/03/13 11:16:29;;;;;;;34.60;23.80;;;;;;;5.34;74.58;99226.17;129240;1105;22878;-55
2021/03/13 11:18:58;;;;;;;35.67;23.90;;;;;;;5.41;74.40;99228.78;129281;1104;22889;-55
2021/03/13 11:21:26;;;;;;;38.67;24.10;;;;;;;5.47;74.12;99225.17;129162;1105;22896;-56
2021/03/13 11:23:54;;;;;;;35.00;21.75;;;;;;;5.53;73.14;99224.22;129267;1106;22834;-55
2021/03/13 11:26:22;;;;;;;31.80;20.30;;;;;;;5.58;73.37;99218.95;129170;1105;22805;-55
2021/03/13 11:28:53;;;;;;;30.50;20.80;;;;;;;5.64;72.95;99217.18;129278;1105;22905;-55
2021/03/13 11:31:21;;;;;;;28.30;20.60;;;;;;;5.67;72.92;99220.25;129200;1105;22906;-55
2021/03/13 11:33:48;;;;;;;28.37;20.33;;;;;;;5.73;72.89;99217.67;129235;1105;22833;-55
2021/03/13 11:36:16;;;;;;;29.70;20.07;;;;;;;5.79;72.50;99220.25;129157;1105;23605;-55